createdAt,value
2023-05-27T00:01:24.312Z,75473.34
2023-05-27T00:02:57.796Z,75483.22
2023-05-27T00:04:31.414Z,75520.78
2023-05-27T00:06:04.865Z,75485.19
2023-05-27T00:07:38.699Z,75493.13
2023-05-27T00:09:12.873Z,75501.03
2023-05-27T00:10:46.639Z,75497.06
2023-05-27T00:12:20.356Z,75497.06
2023-05-27T00:13:53.974Z,75499.03
2023-05-27T00:15:28.606Z,75499.03
2023-05-27T00:17:03.101Z,75489.16
2023-05-27T00:18:37.598Z,75493.13
2023-05-27T00:20:11.747Z,75489.16
2023-05-27T00:21:45.556Z,75487.19
2023-05-27T00:23:19.872Z,75489.16
2023-05-27T00:24:53.638Z,75477.28
2023-05-27T00:26:27.690Z,75465.44
2023-05-27T00:28:04.813Z,75461.47
2023-05-27T00:29:38.334Z,75489.16
2023-05-27T00:31:12.159Z,75447.66
2023-05-27T00:32:48.241Z,75459.50
2023-05-27T00:34:22.229Z,75465.44
2023-05-27T00:35:56.242Z,75469.38
2023-05-27T00:37:30.212Z,75520.78
2023-05-27T00:39:03.983Z,75495.09
2023-05-27T00:40:39.617Z,75503.00
2023-05-27T00:42:17.431Z,75497.06
2023-05-27T00:43:51.148Z,75481.25
2023-05-27T00:45:24.730Z,75481.25
2023-05-27T00:46:58.402Z,75481.25
2023-05-27T00:48:32.083Z,75495.09
2023-05-27T00:50:06.967Z,75473.34
2023-05-27T00:51:40.618Z,75457.53
2023-05-27T00:53:15.630Z,75453.56
2023-05-27T00:54:50.075Z,75437.75
2023-05-27T00:56:24.389Z,75433.81
2023-05-27T00:57:57.812Z,75439.75
2023-05-27T00:59:31.565Z,75429.84
2023-05-27T01:01:05.850Z,75423.94
2023-05-27T01:02:42.203Z,75433.81
2023-05-27T01:04:15.481Z,75443.69
2023-05-27T01:05:49.557Z,75443.69
2023-05-27T01:07:48.218Z,75418.00
2023-05-27T01:09:42.717Z,75418.00
2023-05-27T01:11:23.477Z,75425.91
2023-05-27T01:13:03.154Z,75414.03
2023-05-27T01:14:40.108Z,75408.09
2023-05-27T01:16:16.609Z,75376.47
2023-05-27T01:17:56.304Z,75380.44
2023-05-27T01:19:44.013Z,75342.88
2023-05-27T01:21:18.691Z,75317.19
2023-05-27T01:22:53.857Z,75305.31
2023-05-27T01:24:27.875Z,75303.34
2023-05-27T01:26:02.146Z,75285.53
2023-05-27T01:27:35.895Z,75275.66
2023-05-27T01:29:09.671Z,75273.69
2023-05-27T01:30:43.139Z,75249.97
2023-05-27T01:32:35.297Z,75255.91
2023-05-27T01:34:11.688Z,75240.09
2023-05-27T01:36:00.148Z,75251.94
2023-05-27T01:37:40.093Z,75244.03
2023-05-27T01:39:14.361Z,75220.31
2023-05-27T01:40:50.361Z,75216.38
2023-05-27T01:42:25.645Z,75204.50
2023-05-27T01:44:00.976Z,75200.53
2023-05-27T01:45:36.095Z,75155.09
2023-05-27T01:47:09.797Z,75129.38
2023-05-27T01:48:43.918Z,75109.63
2023-05-27T01:50:18.029Z,75066.13
2023-05-27T01:51:51.648Z,75016.72
2023-05-27T01:53:25.639Z,74991.03
2023-05-27T01:54:59.502Z,74933.69
2023-05-27T01:56:33.729Z,74864.53
2023-05-27T01:58:08.072Z,74826.97
2023-05-27T01:59:42.308Z,74795.34
2023-05-27T02:01:16.124Z,74864.53
2023-05-27T02:02:50.320Z,74860.56
2023-05-27T02:04:25.777Z,74741.97
2023-05-27T02:05:59.067Z,74702.44
2023-05-27T02:07:33.007Z,74619.44
2023-05-27T02:09:06.842Z,74508.75
2023-05-27T02:10:40.128Z,74469.22
2023-05-27T02:12:13.600Z,74481.09
2023-05-27T02:13:47.292Z,74477.13
2023-05-27T02:15:20.737Z,74467.25
2023-05-27T02:16:56.482Z,74435.63
2023-05-27T02:18:36.501Z,74356.59
2023-05-27T02:20:10.608Z,74344.72
2023-05-27T02:21:44.749Z,74437.63
2023-05-27T02:23:22.111Z,74461.31
2023-05-27T02:24:55.916Z,74459.34
2023-05-27T02:26:30.312Z,74437.63
2023-05-27T02:28:04.318Z,74465.28
2023-05-27T02:29:38.656Z,74455.41
2023-05-27T02:31:12.165Z,74449.47
2023-05-27T02:32:45.833Z,74492.94
2023-05-27T02:34:20.433Z,74477.13
2023-05-27T02:35:54.209Z,74425.75
2023-05-27T02:37:29.382Z,74368.44
2023-05-27T02:39:05.215Z,74265.69
2023-05-27T02:40:39.162Z,74279.50
2023-05-27T02:42:12.921Z,74200.47
2023-05-27T02:43:46.891Z,74234.06
2023-05-27T02:45:21.871Z,74117.47
2023-05-27T02:46:57.360Z,74135.25
2023-05-27T02:48:30.964Z,74198.47
2023-05-27T02:50:04.576Z,74210.34
2023-05-27T02:51:38.556Z,74121.41
2023-05-27T02:53:12.136Z,74107.56
2023-05-27T02:54:45.812Z,74054.22
2023-05-27T02:56:19.426Z,74046.31
2023-05-27T02:57:55.438Z,74064.09
2023-05-27T02:59:29.599Z,73992.97
2023-05-27T03:01:03.271Z,74038.41
2023-05-27T03:02:37.673Z,74036.44
2023-05-27T03:04:11.981Z,73981.09
2023-05-27T03:05:45.978Z,73947.50
2023-05-27T03:07:20.011Z,73994.94
2023-05-27T03:08:53.324Z,73959.38
2023-05-27T03:10:28.506Z,73911.94
2023-05-27T03:12:04.139Z,73909.97
2023-05-27T03:13:38.917Z,73919.84
2023-05-27T03:15:12.623Z,73963.31
2023-05-27T03:16:47.570Z,73915.91
2023-05-27T03:18:21.688Z,73959.38
2023-05-27T03:19:55.313Z,73943.56
2023-05-27T03:21:28.712Z,73880.31
2023-05-27T03:23:03.014Z,73929.72
2023-05-27T03:24:37.050Z,73917.88
2023-05-27T03:26:11.054Z,73821.03
2023-05-27T03:27:44.730Z,73848.72
2023-05-27T03:29:23.385Z,73838.81
2023-05-27T03:30:57.504Z,73848.72
2023-05-27T03:32:53.852Z,73759.78
2023-05-27T03:34:35.123Z,73694.59
2023-05-27T03:36:09.702Z,73702.47
2023-05-27T03:37:44.648Z,73674.81
2023-05-27T03:39:19.202Z,73830.94
2023-05-27T03:41:00.535Z,73898.09
2023-05-27T03:42:35.570Z,73904.03
2023-05-27T03:44:09.260Z,73919.84
2023-05-27T03:45:43.139Z,73927.75
2023-05-27T03:47:22.903Z,73836.84
2023-05-27T03:48:57.212Z,73716.31
2023-05-27T03:50:34.688Z,73781.53
2023-05-27T03:52:09.468Z,73753.84
2023-05-27T03:53:42.797Z,73805.22
2023-05-27T03:55:18.409Z,73645.19
2023-05-27T03:56:52.450Z,73720.25
2023-05-27T03:58:26.295Z,73785.47
2023-05-27T04:00:00.613Z,73876.38
2023-05-27T04:01:39.304Z,73939.59
2023-05-27T04:03:13.816Z,74042.38
2023-05-27T04:04:47.981Z,74052.25
2023-05-27T04:06:21.963Z,73959.38
2023-05-27T04:07:55.871Z,73913.91
2023-05-27T04:09:29.860Z,73909.97
2023-05-27T04:11:04.138Z,73828.94
2023-05-27T04:12:37.921Z,73757.81
2023-05-27T04:14:11.547Z,73823.03
2023-05-27T04:15:45.951Z,73961.34
2023-05-27T04:17:19.558Z,73892.19
2023-05-27T04:18:54.330Z,73846.72
2023-05-27T04:20:35.417Z,73807.22
2023-05-27T04:22:09.208Z,73902.06
2023-05-27T04:23:43.319Z,73807.22
2023-05-27T04:25:17.086Z,73783.50
2023-05-27T04:27:14.422Z,73801.28
2023-05-27T04:28:48.409Z,73797.34
2023-05-27T04:30:22.119Z,73726.19
2023-05-27T04:32:00.997Z,73635.31
2023-05-27T04:33:35.231Z,73603.69
2023-05-27T04:35:10.685Z,73666.91
2023-05-27T04:36:45.616Z,73668.88
2023-05-27T04:38:22.465Z,73649.13
2023-05-27T04:40:10.176Z,73655.06
2023-05-27T04:42:00.683Z,73621.47
2023-05-27T04:43:36.893Z,73572.06
2023-05-27T04:45:13.193Z,73591.84
2023-05-27T04:46:47.218Z,73548.38
2023-05-27T04:48:24.699Z,73664.94
2023-05-27T04:49:58.422Z,73743.97
2023-05-27T04:51:31.938Z,73672.84
2023-05-27T04:53:07.312Z,73674.81
2023-05-27T04:54:42.555Z,73686.69
2023-05-27T04:56:28.634Z,73609.63
2023-05-27T04:58:05.137Z,73427.84
2023-05-27T05:00:00.591Z,73451.53
2023-05-27T05:01:50.595Z,73378.44
2023-05-27T05:03:52.249Z,73358.69
2023-05-27T05:05:28.089Z,73257.91
2023-05-27T05:07:01.661Z,73222.34
2023-05-27T05:08:36.224Z,73291.50
2023-05-27T05:10:11.632Z,73386.34
2023-05-27T05:11:54.833Z,73433.75
2023-05-27T05:13:30.589Z,73421.91
2023-05-27T05:15:05.500Z,73342.88
2023-05-27T05:16:39.792Z,73390.28
2023-05-27T05:18:15.623Z,73299.41
2023-05-27T05:19:50.620Z,73257.91
2023-05-27T05:21:24.416Z,73329.03
2023-05-27T05:23:00.384Z,73417.94
2023-05-27T05:24:34.637Z,73368.56
2023-05-27T05:26:08.560Z,73334.97
2023-05-27T05:27:46.333Z,73289.53
2023-05-27T05:29:20.120Z,73291.50
2023-05-27T05:30:53.790Z,73325.09
2023-05-27T05:32:27.945Z,73346.81
2023-05-27T05:34:01.470Z,73344.84
2023-05-27T05:35:37.336Z,73346.81
2023-05-27T05:37:27.967Z,73384.38
2023-05-27T05:39:01.178Z,73204.56
2023-05-27T05:40:35.353Z,73220.38
2023-05-27T05:42:21.674Z,73204.56
2023-05-27T05:43:56.334Z,73354.72
2023-05-27T05:45:29.988Z,73240.13
2023-05-27T05:47:03.960Z,73172.97
2023-05-27T05:48:38.192Z,73172.97
2023-05-27T05:50:14.575Z,73149.25
2023-05-27T05:51:48.143Z,73331.03
2023-05-27T05:53:21.583Z,73356.69
2023-05-27T05:54:55.663Z,73242.09
2023-05-27T05:56:29.576Z,73226.31
2023-05-27T05:58:02.935Z,73348.81
2023-05-27T05:59:37.902Z,73408.06
2023-05-27T06:01:11.814Z,73327.06
2023-05-27T06:02:48.587Z,73309.28
2023-05-27T06:04:46.116Z,73303.34
2023-05-27T06:06:19.722Z,73390.28
2023-05-27T06:08:10.967Z,73350.78
2023-05-27T06:09:48.137Z,73396.22
2023-05-27T06:11:29.941Z,73421.91
2023-05-27T06:13:04.009Z,73348.81
2023-05-27T06:14:38.158Z,73327.06
2023-05-27T06:16:12.236Z,73218.41
2023-05-27T06:17:49.434Z,73153.19
2023-05-27T06:19:23.230Z,73240.13
2023-05-27T06:20:56.988Z,73342.88
2023-05-27T06:22:32.659Z,73366.59
2023-05-27T06:24:26.786Z,73307.31
2023-05-27T06:26:15.546Z,73271.75
2023-05-27T06:27:55.395Z,73234.22
2023-05-27T06:29:29.259Z,73269.78
2023-05-27T06:31:03.193Z,73184.81
2023-05-27T06:32:37.455Z,73338.91
2023-05-27T06:34:11.431Z,73457.47
2023-05-27T06:35:45.643Z,73518.72
2023-05-27T06:37:19.275Z,73589.84
2023-05-27T06:38:53.299Z,73599.72
2023-05-27T06:40:27.238Z,73607.63
2023-05-27T06:42:01.480Z,73564.16
2023-05-27T06:43:53.814Z,73639.25
2023-05-27T06:45:59.477Z,73643.19
2023-05-27T06:47:54.303Z,73554.28
2023-05-27T06:49:28.349Z,73475.25
2023-05-27T06:51:02.467Z,73534.53
2023-05-27T06:52:36.401Z,73425.84
2023-05-27T06:54:28.260Z,73532.56
2023-05-27T06:56:12.424Z,73477.22
2023-05-27T06:58:12.570Z,73348.81
2023-05-27T06:59:58.203Z,73502.91
2023-05-27T07:01:34.349Z,73433.75
2023-05-27T07:03:10.352Z,73386.34
2023-05-27T07:04:44.134Z,73342.88
2023-05-27T07:06:18.123Z,73469.31
2023-05-27T07:07:55.461Z,73548.38
2023-05-27T07:09:29.200Z,73536.50
2023-05-27T07:11:02.730Z,73583.94
2023-05-27T07:12:37.247Z,73526.63
2023-05-27T07:14:29.702Z,73641.22
2023-05-27T07:16:03.531Z,73639.25
2023-05-27T07:17:37.679Z,73603.69
2023-05-27T07:19:11.132Z,73528.59
2023-05-27T07:20:56.376Z,73512.78
2023-05-27T07:22:30.903Z,73481.19
2023-05-27T07:24:05.406Z,73419.94
2023-05-27T07:25:40.496Z,73421.91
2023-05-27T07:27:14.760Z,73390.28
2023-05-27T07:28:55.670Z,73414.00
2023-05-27T07:30:38.362Z,73394.25
2023-05-27T07:32:16.944Z,73358.69
2023-05-27T07:33:51.209Z,73338.91
2023-05-27T07:35:30.578Z,73295.44
2023-05-27T07:37:05.331Z,73481.19
2023-05-27T07:38:40.831Z,73508.84
2023-05-27T07:40:15.124Z,73520.69
2023-05-27T07:41:49.745Z,73477.22
2023-05-27T07:43:24.084Z,73489.09
2023-05-27T07:45:00.313Z,73398.19
2023-05-27T07:46:34.039Z,73449.56
2023-05-27T07:48:07.169Z,73477.22
2023-05-27T07:49:42.330Z,73457.47
2023-05-27T07:51:39.569Z,73469.31
2023-05-27T07:53:14.787Z,73433.75
2023-05-27T07:54:55.095Z,73536.50
2023-05-27T07:56:31.302Z,73558.25
2023-05-27T07:58:08.452Z,73530.56
2023-05-27T07:59:55.695Z,73516.75
2023-05-27T08:01:34.252Z,73481.19
2023-05-27T08:03:08.190Z,73493.03
2023-05-27T08:05:01.582Z,73556.25
2023-05-27T08:06:57.450Z,73556.25
2023-05-27T08:08:41.314Z,73552.31
2023-05-27T08:10:43.793Z,73599.72
2023-05-27T08:12:49.262Z,73635.31
2023-05-27T08:14:42.074Z,73615.53
2023-05-27T08:16:39.091Z,73564.16
2023-05-27T08:18:19.581Z,73593.81
2023-05-27T08:20:09.746Z,73591.84
2023-05-27T08:22:10.160Z,73589.84
2023-05-27T08:23:59.317Z,73583.94
2023-05-27T08:25:44.308Z,73558.25
2023-05-27T08:27:55.226Z,73504.91
2023-05-27T08:29:55.286Z,73394.25
2023-05-27T08:31:44.255Z,73358.69
2023-05-27T08:33:18.433Z,73299.41
2023-05-27T08:34:52.132Z,73309.28
2023-05-27T08:36:25.506Z,73299.41
2023-05-27T08:37:59.123Z,73252.00
2023-05-27T08:39:37.065Z,73255.94
2023-05-27T08:41:43.372Z,73248.03
2023-05-27T08:43:17.558Z,73220.38
2023-05-27T08:44:53.026Z,73242.09
2023-05-27T08:46:29.626Z,73242.09
2023-05-27T08:48:03.997Z,73252.00
2023-05-27T08:49:47.979Z,73230.25
2023-05-27T08:51:31.131Z,73228.28
2023-05-27T08:53:06.045Z,73253.97
2023-05-27T08:54:44.031Z,73279.66
2023-05-27T08:56:23.964Z,73259.88
2023-05-27T08:58:03.492Z,73273.72
2023-05-27T09:01:53.300Z,73275.69
2023-05-27T09:03:29.656Z,73331.03
2023-05-27T09:05:03.827Z,73354.72
2023-05-27T09:06:37.388Z,73431.78
2023-05-27T09:08:10.791Z,73457.47
2023-05-27T09:09:44.955Z,73481.19
2023-05-27T09:11:30.581Z,73540.47
2023-05-27T09:13:04.202Z,73572.06
2023-05-27T09:14:46.085Z,73595.78
2023-05-27T09:16:23.414Z,73556.25
2023-05-27T09:19:32.009Z,73591.84
2023-05-27T09:21:06.298Z,73544.41
2023-05-27T09:22:40.765Z,73449.56
2023-05-27T09:24:14.605Z,73419.94
2023-05-27T09:25:48.584Z,73394.25
2023-05-27T09:27:27.229Z,73400.16
2023-05-27T09:29:04.813Z,73445.63
2023-05-27T09:30:39.942Z,73437.72
2023-05-27T09:32:13.759Z,73522.69
2023-05-27T09:33:50.027Z,73560.22
2023-05-27T09:35:24.187Z,73572.06
2023-05-27T09:36:58.434Z,73550.34
2023-05-27T09:38:33.167Z,73524.66
2023-05-27T09:40:12.367Z,73459.44
2023-05-27T09:41:51.174Z,73457.47
2023-05-27T09:43:29.418Z,73447.59
2023-05-27T09:45:07.562Z,73400.16
2023-05-27T09:46:46.109Z,73315.22
2023-05-27T09:48:24.095Z,73279.66
2023-05-27T09:49:58.476Z,73291.50
2023-05-27T09:51:33.932Z,73265.81
2023-05-27T09:53:12.292Z,73334.97
2023-05-27T09:54:46.452Z,73398.19
2023-05-27T09:56:24.853Z,73445.63
2023-05-27T09:57:59.296Z,73457.47
2023-05-27T09:59:33.702Z,73465.38
2023-05-27T10:01:08.137Z,73469.31
2023-05-27T10:02:48.921Z,73457.47
2023-05-27T10:04:23.496Z,73455.50
2023-05-27T10:05:57.761Z,73423.88
2023-05-27T10:07:38.752Z,73437.72
2023-05-27T10:09:15.501Z,73417.94
2023-05-27T10:10:49.395Z,73386.34
2023-05-27T10:12:23.616Z,73364.59
2023-05-27T10:13:57.701Z,73358.69
2023-05-27T10:15:35.097Z,73350.78
2023-05-27T10:17:08.825Z,73360.66
2023-05-27T10:18:44.793Z,73342.88
2023-05-27T10:20:41.691Z,73323.13
2023-05-27T10:22:15.073Z,73342.88
2023-05-27T10:23:58.728Z,73378.44
2023-05-27T10:25:42.376Z,73417.94
2023-05-27T10:27:16.117Z,73433.75
2023-05-27T10:28:52.619Z,73445.63
2023-05-27T10:30:26.188Z,73423.88
2023-05-27T10:32:02.661Z,73396.22
2023-05-27T10:33:40.584Z,73390.28
2023-05-27T10:35:14.404Z,73398.19
2023-05-27T10:36:48.674Z,73421.91
2023-05-27T10:38:22.401Z,73431.78
2023-05-27T10:39:57.937Z,73437.72
2023-05-27T10:41:50.990Z,73465.38
2023-05-27T10:43:31.461Z,73467.34
2023-05-27T10:45:12.356Z,73485.13
2023-05-27T10:46:46.440Z,73491.06
2023-05-27T10:48:21.076Z,73489.09
2023-05-27T10:49:54.899Z,73477.22
2023-05-27T10:51:34.299Z,73467.34
2023-05-27T10:53:09.068Z,73493.03
2023-05-27T10:54:44.279Z,73491.06
2023-05-27T10:56:18.137Z,73493.03
2023-05-27T10:57:51.754Z,73477.22
2023-05-27T10:59:26.056Z,73461.41
2023-05-27T11:01:02.863Z,73433.75
2023-05-27T11:02:40.615Z,73402.16
2023-05-27T11:04:14.266Z,73348.81
2023-05-27T11:05:47.966Z,73319.16
2023-05-27T11:07:23.264Z,73327.06
2023-05-27T11:08:58.033Z,73352.75
2023-05-27T11:10:32.126Z,73378.44
2023-05-27T11:12:06.830Z,73366.59
2023-05-27T11:13:46.772Z,73342.88
2023-05-27T11:15:22.466Z,73327.06
2023-05-27T11:16:56.201Z,73338.91
2023-05-27T11:19:02.679Z,73340.91
2023-05-27T11:20:40.350Z,73299.41
2023-05-27T11:22:15.515Z,73313.25
2023-05-27T11:23:50.997Z,73323.13
2023-05-27T11:25:24.961Z,73289.53
2023-05-27T11:26:59.442Z,73291.50
2023-05-27T11:28:33.524Z,73267.78
2023-05-27T11:30:14.622Z,73250.00
2023-05-27T11:31:48.983Z,73246.06
2023-05-27T11:33:37.682Z,73275.69
2023-05-27T11:35:16.182Z,73287.56
2023-05-27T11:36:51.565Z,73263.84
2023-05-27T11:38:25.280Z,73297.44
2023-05-27T11:39:59.439Z,73291.50
2023-05-27T11:41:34.130Z,73356.69
2023-05-27T11:43:07.976Z,73325.09
2023-05-27T11:44:52.249Z,73334.97
2023-05-27T11:46:36.460Z,73386.34
2023-05-27T11:48:10.590Z,73390.28
2023-05-27T11:49:44.278Z,73386.34
2023-05-27T11:51:17.675Z,73388.31
2023-05-27T11:52:56.542Z,73372.50
2023-05-27T11:54:36.468Z,73338.91
2023-05-27T11:56:12.012Z,73404.13
2023-05-27T11:57:45.496Z,73406.09
2023-05-27T11:59:20.391Z,73364.59
2023-05-27T12:00:54.080Z,73354.72
2023-05-27T12:02:27.815Z,73374.47
2023-05-27T12:04:01.639Z,73408.06
2023-05-27T12:05:35.668Z,73437.72
2023-05-27T12:07:19.511Z,73449.56
2023-05-27T12:08:54.090Z,73429.81
2023-05-27T12:10:27.938Z,73437.72
2023-05-27T12:12:02.772Z,73414.00
2023-05-27T12:13:37.056Z,73384.38
2023-05-27T12:15:10.853Z,73374.47
2023-05-27T12:16:44.561Z,73364.59
2023-05-27T12:18:19.605Z,73374.47
2023-05-27T12:19:53.694Z,73394.25
2023-05-27T12:21:31.125Z,73366.59
2023-05-27T12:23:05.246Z,73396.22
2023-05-27T12:24:42.365Z,73366.59
2023-05-27T12:26:16.708Z,73380.41
2023-05-27T12:27:50.439Z,73372.50
2023-05-27T12:29:25.945Z,73358.69
2023-05-27T12:31:00.081Z,73388.31
2023-05-27T12:32:34.298Z,73376.47
2023-05-27T12:34:07.930Z,73370.53
2023-05-27T12:35:41.380Z,73354.72
2023-05-27T12:37:15.589Z,73350.78
2023-05-27T12:38:49.333Z,73360.66
2023-05-27T12:40:23.328Z,73374.47
2023-05-27T12:41:57.052Z,73370.53
2023-05-27T12:43:31.652Z,73376.47
2023-05-27T12:45:05.635Z,73390.28
2023-05-27T12:46:39.807Z,73406.09
2023-05-27T12:48:16.268Z,73386.34
2023-05-27T12:49:49.948Z,73431.78
2023-05-27T12:51:23.540Z,73427.84
2023-05-27T12:52:57.150Z,73417.94
2023-05-27T12:54:31.053Z,73414.00
2023-05-27T12:56:04.907Z,73398.19
2023-05-27T12:57:40.470Z,73394.25
2023-05-27T12:59:15.041Z,73437.72
2023-05-27T13:00:48.562Z,73453.53
2023-05-27T13:02:22.183Z,73473.28
2023-05-27T13:03:56.380Z,73502.91
2023-05-27T13:05:30.494Z,73493.03
2023-05-27T13:07:04.473Z,73498.97
2023-05-27T13:08:41.642Z,73516.75
2023-05-27T13:10:15.931Z,73504.91
2023-05-27T13:11:49.451Z,73495.00
2023-05-27T13:13:23.619Z,73487.09
2023-05-27T13:14:59.003Z,73485.13
2023-05-27T13:16:36.167Z,73477.22
2023-05-27T13:18:11.422Z,73465.38
2023-05-27T13:19:45.613Z,73457.47
2023-05-27T13:21:19.744Z,73469.31
2023-05-27T13:22:54.642Z,73479.22
2023-05-27T13:24:28.530Z,73485.13
2023-05-27T13:26:02.739Z,73485.13
2023-05-27T13:27:37.351Z,73481.19
2023-05-27T13:29:11.832Z,73508.84
2023-05-27T13:30:45.605Z,73502.91
2023-05-27T13:32:19.405Z,73510.81
2023-05-27T13:33:53.539Z,73520.69
2023-05-27T13:35:27.505Z,73544.41
2023-05-27T13:37:01.565Z,73548.38
2023-05-27T13:38:35.358Z,73552.31
2023-05-27T13:40:10.573Z,73556.25
2023-05-27T13:41:44.279Z,73564.16
2023-05-27T13:43:18.917Z,73599.72
2023-05-27T13:44:52.626Z,73603.69
2023-05-27T13:46:26.625Z,73605.66
2023-05-27T13:48:00.543Z,73627.41
2023-05-27T13:49:34.473Z,73643.19
2023-05-27T13:51:08.112Z,73651.09
2023-05-27T13:52:41.735Z,73659.00
2023-05-27T13:54:15.083Z,73664.94
2023-05-27T13:55:49.239Z,73670.88
2023-05-27T13:57:24.071Z,73655.06
2023-05-27T13:58:57.879Z,73674.81
2023-05-27T14:00:32.685Z,73672.84
2023-05-27T14:02:07.342Z,73674.81
2023-05-27T14:03:41.518Z,73670.88
2023-05-27T14:05:15.099Z,73639.25
2023-05-27T14:06:48.659Z,73653.09
2023-05-27T14:08:22.224Z,73659.00
2023-05-27T14:09:56.265Z,73659.00
2023-05-27T14:11:31.911Z,73643.19
2023-05-27T14:13:06.638Z,73649.13
2023-05-27T14:14:40.095Z,73649.13
2023-05-27T14:16:13.789Z,73662.97
2023-05-27T14:17:47.945Z,73672.84
2023-05-27T14:19:21.917Z,73666.91
2023-05-27T14:20:55.514Z,73676.78
2023-05-27T14:22:29.171Z,73686.69
2023-05-27T14:24:03.454Z,73688.66
2023-05-27T14:25:37.328Z,73686.69
2023-05-27T14:27:11.038Z,73684.69
2023-05-27T14:28:44.753Z,73694.59
2023-05-27T14:30:19.839Z,73698.53
2023-05-27T14:31:53.436Z,73722.25
2023-05-27T14:33:27.095Z,73724.22
2023-05-27T14:35:04.005Z,73722.25
2023-05-27T14:36:38.248Z,73730.16
2023-05-27T14:38:14.117Z,73732.13
2023-05-27T14:39:47.592Z,73740.03
2023-05-27T14:41:21.776Z,73736.06
2023-05-27T14:42:56.236Z,73742.00
2023-05-27T14:44:30.313Z,73732.13
2023-05-27T14:46:04.386Z,73745.94
2023-05-27T14:47:38.088Z,73757.81
2023-05-27T14:49:12.299Z,73759.78
2023-05-27T14:50:46.561Z,73771.66
2023-05-27T14:52:19.959Z,73751.88
2023-05-27T14:53:53.514Z,73765.72
2023-05-27T14:55:27.208Z,73757.81
2023-05-27T14:57:01.045Z,73757.81
2023-05-27T14:58:35.968Z,73767.69
2023-05-27T15:00:12.062Z,73769.66
2023-05-27T15:01:46.198Z,73785.47
2023-05-27T15:03:19.712Z,73785.47
2023-05-27T15:04:53.544Z,73791.41
2023-05-27T15:06:27.021Z,73795.34
2023-05-27T15:08:00.961Z,73801.28
2023-05-27T15:09:34.305Z,73811.16
2023-05-27T15:11:08.382Z,73826.97
2023-05-27T15:12:43.176Z,73823.03
2023-05-27T15:14:17.578Z,73842.78
2023-05-27T15:15:51.722Z,73848.72
2023-05-27T15:17:25.425Z,73860.56
2023-05-27T15:18:59.918Z,73850.69
2023-05-27T15:20:34.339Z,73868.47
2023-05-27T15:22:08.186Z,73886.25
2023-05-27T15:23:41.911Z,73888.22
2023-05-27T15:25:15.782Z,73908.00
2023-05-27T15:26:51.943Z,73909.97
2023-05-27T15:28:28.332Z,73923.78
2023-05-27T15:30:06.584Z,73935.66
2023-05-27T15:31:40.415Z,73943.56
2023-05-27T15:33:14.205Z,73945.53
2023-05-27T15:34:47.440Z,73971.22
2023-05-27T15:36:21.223Z,73975.19
2023-05-27T15:37:54.871Z,73985.06
2023-05-27T15:39:28.672Z,73998.88
2023-05-27T15:41:02.285Z,74004.81
2023-05-27T15:42:36.667Z,74010.75
2023-05-27T15:44:09.927Z,74018.66
2023-05-27T15:45:55.852Z,74026.56
2023-05-27T15:47:36.939Z,74038.41
2023-05-27T15:49:15.232Z,74040.38
2023-05-27T15:50:50.187Z,74046.31
2023-05-27T15:52:23.913Z,74054.22
2023-05-27T15:53:57.354Z,74056.19
2023-05-27T15:55:31.886Z,74097.69
2023-05-27T15:57:06.767Z,74070.03
2023-05-27T15:58:40.459Z,74077.94
2023-05-27T16:00:14.346Z,74079.91
2023-05-27T16:01:48.133Z,74083.88
2023-05-27T16:03:22.352Z,74097.69
2023-05-27T16:04:56.075Z,74105.59
2023-05-27T16:06:29.584Z,74125.38
2023-05-27T16:08:04.083Z,74113.50
2023-05-27T16:09:39.532Z,74115.47
2023-05-27T16:11:13.549Z,74123.38
2023-05-27T16:12:46.929Z,74123.38
2023-05-27T16:14:20.409Z,74129.31
2023-05-27T16:15:55.750Z,74137.22
2023-05-27T16:17:30.047Z,74149.06
2023-05-27T16:19:03.950Z,74164.88
2023-05-27T16:20:37.608Z,74174.78
2023-05-27T16:22:12.550Z,74184.66
2023-05-27T16:23:50.491Z,74200.47
2023-05-27T16:25:33.967Z,74210.34
2023-05-27T16:27:07.895Z,74220.22
2023-05-27T16:28:42.249Z,74234.06
2023-05-27T16:30:16.724Z,74236.03
2023-05-27T16:31:50.437Z,74243.94
2023-05-27T16:33:24.118Z,74247.88
2023-05-27T16:34:57.781Z,74259.75
2023-05-27T16:36:35.156Z,74259.75
2023-05-27T16:38:09.073Z,74305.19
2023-05-27T16:39:43.149Z,74279.50
2023-05-27T16:41:16.754Z,74283.47
2023-05-27T16:42:50.206Z,74285.44
2023-05-27T16:44:23.934Z,74279.50
2023-05-27T16:45:57.458Z,74281.47
2023-05-27T16:47:32.072Z,74283.47
2023-05-27T16:49:05.753Z,74315.09
2023-05-27T16:50:39.386Z,74305.19
2023-05-27T16:52:12.827Z,74287.41
2023-05-27T16:53:46.588Z,74295.31
2023-05-27T16:55:20.659Z,74307.19
2023-05-27T16:56:54.052Z,74315.09
2023-05-27T16:58:28.480Z,74324.97
2023-05-27T17:00:03.375Z,74350.66
2023-05-27T17:01:39.422Z,74334.84
2023-05-27T17:03:13.055Z,74340.78
2023-05-27T17:04:47.070Z,74342.75
2023-05-27T17:06:21.144Z,74358.56
2023-05-27T17:07:54.703Z,74362.50
2023-05-27T17:09:29.111Z,74364.50
2023-05-27T17:11:02.932Z,74376.34
2023-05-27T17:12:39.572Z,74400.06
2023-05-27T17:14:13.511Z,74406.00
2023-05-27T17:15:47.753Z,74398.09
2023-05-27T17:17:21.808Z,74404.00
2023-05-27T17:18:55.858Z,74406.00
2023-05-27T17:20:29.715Z,74413.91
2023-05-27T17:22:04.014Z,74415.88
2023-05-27T17:23:37.908Z,74425.75
2023-05-27T17:25:11.684Z,74435.63
2023-05-27T17:26:45.525Z,74429.72
2023-05-27T17:28:19.152Z,74435.63
2023-05-27T17:29:52.780Z,74441.56
2023-05-27T17:31:26.527Z,74441.56
2023-05-27T17:33:00.590Z,74445.50
2023-05-27T17:34:34.988Z,74443.53
2023-05-27T17:36:08.877Z,74447.50
2023-05-27T17:37:42.875Z,74447.50
2023-05-27T17:39:19.174Z,74447.50
2023-05-27T17:40:52.874Z,74443.53
2023-05-27T17:42:26.749Z,74447.50
2023-05-27T17:44:00.954Z,74445.50
2023-05-27T17:45:34.865Z,74445.50
2023-05-27T17:47:08.675Z,74447.50
2023-05-27T17:48:43.670Z,74445.50
2023-05-27T17:50:17.385Z,74447.50
2023-05-27T17:51:51.886Z,74445.50
2023-05-27T17:53:25.379Z,74449.47
2023-05-27T17:54:58.979Z,74453.41
2023-05-27T17:56:32.872Z,74461.31
2023-05-27T17:58:06.529Z,74465.28
2023-05-27T17:59:39.742Z,74479.13
2023-05-27T18:01:13.310Z,74487.03
2023-05-27T18:02:47.483Z,74524.56
2023-05-27T18:04:21.030Z,74498.88
2023-05-27T18:05:57.582Z,74500.84
2023-05-27T18:07:31.538Z,74516.66
2023-05-27T18:09:09.008Z,74524.56
2023-05-27T18:10:42.954Z,74544.34
2023-05-27T18:12:19.183Z,74558.16
2023-05-27T18:13:52.593Z,74556.19
2023-05-27T18:15:26.737Z,74583.88
2023-05-27T18:17:02.585Z,74579.91
2023-05-27T18:18:37.199Z,74583.88
2023-05-27T18:20:11.627Z,74579.91
2023-05-27T18:21:45.563Z,74577.94
2023-05-27T18:23:19.995Z,74583.88
2023-05-27T18:24:53.603Z,74591.78
2023-05-27T18:26:27.594Z,74589.78
2023-05-27T18:28:01.666Z,74591.78
2023-05-27T18:29:35.526Z,74601.66
2023-05-27T18:31:09.115Z,74603.63
2023-05-27T18:32:49.877Z,74627.34
2023-05-27T18:34:23.974Z,74619.44
2023-05-27T18:35:57.980Z,74621.41
2023-05-27T18:37:32.529Z,74643.16
2023-05-27T18:39:06.110Z,74643.16
2023-05-27T18:40:41.707Z,74647.09
2023-05-27T18:42:15.827Z,74651.06
2023-05-27T18:43:49.335Z,74657.00
2023-05-27T18:45:46.295Z,74658.97
2023-05-27T18:47:20.023Z,74672.81
2023-05-27T18:48:53.438Z,74672.81
2023-05-27T18:50:31.617Z,74690.59
2023-05-27T18:52:06.282Z,74670.81
2023-05-27T18:53:43.366Z,74662.91
2023-05-27T18:55:16.759Z,74666.88